Time;durP1;ratioP1;P1;durP2;ratioP2;P2;SDS_P1;SDS_P2;PMS_P1;PMS_P2;Temp;Humidity;BMP_temperature;BMP_pressure;BME280_temperature;BME280_humidity;BME280_pressure;Samples;Min_cycle;Max_cycle;Signal;HPM_P1;HPM_P2
2022/03/05 00:00:47;;;;;;;18.27;10.65;;;0.00;39.10;;;;;;5027372;28;20292;-67
2022/03/05 00:03:14;;;;;;;17.42;9.77;;;0.00;38.80;;;;;;5027175;28;20630;-68
2022/03/05 00:05:42;;;;;;;17.15;10.35;;;0.00;38.70;;;;;;5027498;28;20191;-67
2022/03/05 00:08:10;;;;;;;18.98;9.43;;;-0.10;38.70;;;;;;5027393;28;20277;-68
2022/03/05 00:10:38;;;;;;;17.60;9.25;;;-0.20;39.30;;;;;;5027475;28;20218;-68
2022/03/05 00:13:05;;;;;;;16.35;8.75;;;-0.20;39.70;;;;;;5027592;28;20661;-68
2022/03/05 00:15:32;;;;;;;17.77;10.43;;;-0.30;39.50;;;;;;5027506;28;20266;-68
2022/03/05 00:17:59;;;;;;;26.10;12.95;;;-0.30;39.40;;;;;;5027202;28;20199;-67
2022/03/05 00:20:26;;;;;;;21.73;11.65;;;-0.40;40.40;;;;;;5027458;28;20195;-67
2022/03/05 00:22:53;;;;;;;20.65;12.27;;;-0.40;40.20;;;;;;5027377;28;20261;-68
2022/03/05 00:25:23;;;;;;;18.38;9.52;;;-0.50;40.30;;;;;;5028486;28;20195;-67
2022/03/05 00:27:51;;;;;;;16.00;9.32;;;-0.40;40.90;;;;;;5030862;28;20199;-67
2022/03/05 00:30:18;;;;;;;19.23;8.43;;;-0.40;40.40;;;;;;5030665;28;20199;-67
2022/03/05 00:32:46;;;;;;;14.23;7.75;;;-0.40;40.00;;;;;;5030509;28;20634;-67
2022/03/05 00:35:13;;;;;;;16.00;8.30;;;-0.40;41.10;;;;;;5030619;28;20238;-68
2022/03/05 00:37:40;;;;;;;15.65;8.20;;;-0.50;40.80;;;;;;5030129;28;20253;-67
2022/03/05 00:40:09;;;;;;;20.05;10.63;;;-0.50;40.60;;;;;;5030706;28;20214;-68
2022/03/05 00:42:38;;;;;;;12.27;8.30;;;-0.60;40.50;;;;;;5030825;28;20508;-68
2022/03/05 00:45:06;;;;;;;17.08;9.25;;;-0.60;40.90;;;;;;5030567;28;20595;-68
2022/03/05 00:47:34;;;;;;;17.10;9.55;;;-0.60;41.30;;;;;;5030525;28;20191;-68
2022/03/05 00:50:01;;;;;;;18.27;9.95;;;-0.60;41.80;;;;;;5030752;28;20276;-68
2022/03/05 00:52:28;;;;;;;17.63;9.35;;;-0.70;41.50;;;;;;5030877;28;20195;-67
2022/03/05 00:54:55;;;;;;;13.98;8.60;;;-0.70;41.30;;;;;;5029877;28;20195;-67
2022/03/05 00:57:21;;;;;;;16.17;8.63;;;-0.80;41.10;;;;;;5030247;28;20210;-67
2022/03/05 00:59:50;;;;;;;15.18;8.98;;;-0.80;41.40;;;;;;5030289;28;20614;-67
2022/03/05 01:02:17;;;;;;;14.20;8.35;;;-0.80;41.20;;;;;;5029922;28;20549;-67
2022/03/05 01:04:44;;;;;;;14.18;7.82;;;-0.80;41.80;;;;;;5029811;28;20187;-68
2022/03/05 01:07:11;;;;;;;15.90;7.85;;;-0.90;41.60;;;;;;5030048;28;20217;-67
2022/03/05 01:09:38;;;;;;;21.20;10.27;;;-0.90;41.40;;;;;;5029820;28;20661;-68
2022/03/05 01:12:05;;;;;;;18.00;9.68;;;-0.90;41.70;;;;;;5029905;28;20231;-68
2022/03/05 01:14:32;;;;;;;14.32;8.65;;;-1.00;41.80;;;;;;5029619;28;20673;-67
2022/03/05 01:17:01;;;;;;;15.68;8.77;;;-0.90;41.90;;;;;;5030268;28;20193;-67
2022/03/05 01:19:28;;;;;;;13.85;6.88;;;-1.00;42.00;;;;;;5029966;28;20534;-67
2022/03/05 01:21:55;;;;;;;15.70;8.77;;;-1.10;41.70;;;;;;5029910;28;20250;-67
2022/03/05 01:24:21;;;;;;;18.63;8.80;;;-1.10;42.50;;;;;;5029857;28;20257;-68
2022/03/05 01:26:48;;;;;;;16.20;8.80;;;-1.10;42.80;;;;;;5029662;28;20191;-67
2022/03/05 01:29:15;;;;;;;13.02;7.00;;;-1.10;42.40;;;;;;5029765;28;20237;-68
2022/03/05 01:31:42;;;;;;;12.95;8.77;;;-1.10;42.30;;;;;;5029532;28;20195;-68
2022/03/05 01:34:11;;;;;;;15.50;8.00;;;-1.30;42.70;;;;;;5029764;28;20572;-68
2022/03/05 01:36:37;;;;;;;11.73;6.80;;;-1.40;43.40;;;;;;5029452;28;20227;-67
2022/03/05 01:39:04;;;;;;;17.98;8.60;;;-1.50;43.70;;;;;;5029492;28;20253;-68
2022/03/05 01:41:31;;;;;;;13.85;8.35;;;-1.60;43.60;;;;;;5029546;28;20214;-68
2022/03/05 01:43:59;;;;;;;12.18;7.30;;;-1.60;43.70;;;;;;5029529;28;20195;-67
2022/03/05 01:46:34;;;;;;;11.10;7.15;;;-1.60;44.20;;;;;;5029473;28;20499;-68
2022/03/05 01:49:02;;;;;;;10.55;6.95;;;-1.60;44.10;;;;;;5029849;28;20597;-68
2022/03/05 01:51:30;;;;;;;10.93;6.47;;;-1.60;44.30;;;;;;5029240;28;20249;-67
2022/03/05 01:53:57;;;;;;;14.52;7.28;;;-1.50;45.00;;;;;;5029198;28;20192;-67
2022/03/05 01:56:26;;;;;;;17.90;8.60;;;-1.50;45.00;;;;;;5029166;28;20233;-68
2022/03/05 01:58:53;;;;;;;14.30;7.10;;;-1.50;44.70;;;;;;5029128;28;20191;-68
2022/03/05 02:01:22;;;;;;;13.32;8.10;;;-1.60;44.20;;;;;;5028678;28;20276;-68
2022/03/05 02:03:49;;;;;;;14.27;7.50;;;-1.60;43.80;;;;;;5028886;28;20651;-68
2022/03/05 02:06:16;;;;;;;15.90;7.63;;;-1.60;43.80;;;;;;5028455;28;20198;-68
2022/03/05 02:08:44;;;;;;;12.57;7.25;;;-1.60;43.90;;;;;;5028932;28;20593;-67
2022/03/05 02:11:11;;;;;;;16.52;7.28;;;-1.60;44.10;;;;;;5028584;28;20290;-68
2022/03/05 02:13:38;;;;;;;17.23;8.13;;;-1.60;43.90;;;;;;5028848;28;20678;-67
2022/03/05 02:16:05;;;;;;;15.20;8.02;;;-1.60;44.20;;;;;;5029156;28;20187;-68
2022/03/05 02:18:33;;;;;;;13.68;7.88;;;-1.70;44.40;;;;;;5029015;28;20550;-68
2022/03/05 02:21:01;;;;;;;12.13;6.80;;;-1.70;44.00;;;;;;5029162;28;20366;-67
2022/03/05 02:23:28;;;;;;;18.23;9.32;;;-1.70;43.90;;;;;;5028998;28;20223;-67
2022/03/05 02:25:57;;;;;;;14.10;8.57;;;-1.70;43.90;;;;;;5028751;28;20237;-67
2022/03/05 02:28:25;;;;;;;21.33;9.80;;;-1.70;44.10;;;;;;5028872;28;20273;-67
2022/03/05 02:30:52;;;;;;;18.13;8.77;;;-1.70;44.10;;;;;;5028568;28;20269;-67
2022/03/05 02:33:19;;;;;;;16.20;7.10;;;-1.80;44.20;;;;;;5028791;28;20242;-67
2022/03/05 02:35:47;;;;;;;12.32;7.40;;;-1.80;44.20;;;;;;5028431;28;20236;-67
2022/03/05 02:38:17;;;;;;;12.13;6.30;;;-1.80;44.40;;;;;;5028662;28;20634;-67
2022/03/05 02:40:46;;;;;;;13.93;7.13;;;-1.90;44.70;;;;;;5028606;28;20551;-67
2022/03/05 02:43:13;;;;;;;15.13;8.20;;;-2.00;44.70;;;;;;5027918;28;20348;-68
2022/03/05 02:45:41;;;;;;;14.93;7.43;;;-2.00;44.90;;;;;;5028607;28;20230;-67
2022/03/05 02:48:14;;;;;;;12.63;7.95;;;-2.00;45.30;;;;;;5028070;28;20191;-67
2022/03/05 02:50:41;;;;;;;13.65;6.88;;;-2.00;45.50;;;;;;5028593;28;20242;-70
2022/03/05 02:53:09;;;;;;;13.95;6.07;;;-2.10;45.50;;;;;;5028394;28;20333;-67
2022/03/05 02:55:37;;;;;;;14.00;7.00;;;-2.10;45.70;;;;;;5028846;28;20260;-68
2022/03/05 02:58:05;;;;;;;21.88;8.43;;;-2.00;45.50;;;;;;5028218;28;20677;-67
2022/03/05 03:00:32;;;;;;;13.80;8.43;;;-2.10;45.70;;;;;;5028310;28;20207;-69
2022/03/05 03:02:59;;;;;;;15.90;8.77;;;-2.10;45.70;;;;;;5028609;28;20218;-67
2022/03/05 03:05:27;;;;;;;11.02;6.85;;;-2.10;45.80;;;;;;5028393;28;20238;-67
2022/03/05 03:07:53;;;;;;;13.63;7.95;;;-2.20;46.10;;;;;;5028345;28;20195;-68
2022/03/05 03:10:21;;;;;;;15.48;8.10;;;-2.20;46.50;;;;;;5028282;28;20265;-67
2022/03/05 03:12:49;;;;;;;18.52;9.30;;;-2.20;46.70;;;;;;5027939;28;20669;-68
2022/03/05 03:15:17;;;;;;;14.32;8.13;;;-2.20;46.90;;;;;;5028084;28;20215;-67
2022/03/05 03:17:45;;;;;;;17.15;8.45;;;-2.20;46.70;;;;;;5028144;28;20195;-67
2022/03/05 03:20:14;;;;;;;12.57;7.75;;;-2.10;47.00;;;;;;5028413;28;20191;-67
2022/03/05 03:22:41;;;;;;;13.50;7.80;;;-2.20;47.50;;;;;;5028146;28;20252;-68
2022/03/05 03:25:11;;;;;;;15.63;8.45;;;-2.20;47.80;;;;;;5027627;28;20248;-67
2022/03/05 03:27:38;;;;;;;15.73;8.02;;;-2.20;48.10;;;;;;5028300;28;20195;-67
2022/03/05 03:30:08;;;;;;;11.55;7.50;;;-2.20;48.10;;;;;;5027634;28;20195;-68
2022/03/05 03:32:36;;;;;;;11.20;6.57;;;-2.20;48.10;;;;;;5027658;28;20250;-71
2022/03/05 03:35:03;;;;;;;14.57;8.82;;;-2.20;47.50;;;;;;5028065;28;20194;-67
2022/03/05 03:37:31;;;;;;;15.18;7.82;;;-2.30;47.60;;;;;;5028115;28;20199;-67
2022/03/05 03:39:59;;;;;;;12.82;8.25;;;-2.30;47.50;;;;;;5027870;28;20199;-67
2022/03/05 03:42:27;;;;;;;13.35;7.25;;;-2.30;47.60;;;;;;5027929;28;20300;-67
2022/03/05 03:44:55;;;;;;;17.25;8.50;;;-2.30;47.90;;;;;;5027915;28;20523;-67
2022/03/05 03:47:24;;;;;;;13.85;7.25;;;-2.40;48.50;;;;;;5027828;28;20199;-67
2022/03/05 03:49:52;;;;;;;13.50;7.50;;;-2.50;49.10;;;;;;5027800;28;20219;-67
2022/03/05 03:52:19;;;;;;;14.25;8.68;;;-2.50;49.20;;;;;;5027843;28;20277;-67
2022/03/05 03:54:48;;;;;;;14.20;8.93;;;-2.50;49.10;;;;;;5027745;28;20191;-67
2022/03/05 03:57:19;;;;;;;17.02;10.25;;;-2.50;49.20;;;;;;5027839;28;20226;-67
2022/03/05 03:59:47;;;;;;;19.13;8.55;;;-2.50;49.10;;;;;;5028402;28;20337;-67
2022/03/05 04:02:14;;;;;;;20.67;7.72;;;-2.50;48.90;;;;;;5032049;28;20199;-68
2022/03/05 04:04:42;;;;;;;14.70;9.50;;;-2.50;48.30;;;;;;5031645;28;20241;-68
2022/03/05 04:09:54;;;;;;;23.30;10.00;;;-2.60;49.90;;;;;;5031849;28;20276;-68
2022/03/05 04:12:21;;;;;;;17.50;10.20;;;-2.70;50.10;;;;;;5031676;28;20233;-68
2022/03/05 04:14:48;;;;;;;16.90;9.10;;;-2.70;50.30;;;;;;5031380;28;20281;-67
2022/03/05 04:17:15;;;;;;;19.50;9.55;;;-2.60;50.60;;;;;;5031336;28;20194;-72
2022/03/05 04:19:44;;;;;;;16.77;8.60;;;-2.60;51.00;;;;;;5031584;28;20262;-68
2022/03/05 04:22:11;;;;;;;12.23;7.75;;;-2.60;50.20;;;;;;5031566;28;20207;-68
2022/03/05 04:24:38;;;;;;;16.33;8.50;;;-2.60;49.50;;;;;;5031543;28;20585;-67
2022/03/05 04:27:05;;;;;;;14.75;8.40;;;-2.70;49.40;;;;;;5031401;28;20709;-68
2022/03/05 04:29:32;;;;;;;11.98;7.55;;;-2.70;49.40;;;;;;5031446;28;20191;-69
2022/03/05 04:31:59;;;;;;;16.75;8.18;;;-2.70;49.40;;;;;;5031258;28;20283;-67
2022/03/05 04:34:27;;;;;;;19.75;8.85;;;-2.70;49.20;;;;;;5031337;28;20276;-67
2022/03/05 04:36:55;;;;;;;13.95;8.40;;;-2.70;48.90;;;;;;5031619;28;20230;-67
2022/03/05 04:39:22;;;;;;;16.30;8.70;;;-2.80;48.80;;;;;;5031291;28;20298;-67
2022/03/05 04:41:49;;;;;;;13.57;8.80;;;-2.80;48.80;;;;;;5031273;28;20249;-67
2022/03/05 04:44:16;;;;;;;13.77;8.13;;;-2.90;48.50;;;;;;5030975;28;20241;-68
2022/03/05 04:46:43;;;;;;;18.60;8.80;;;-3.00;48.40;;;;;;5031177;28;20243;-67
2022/03/05 04:49:11;;;;;;;21.63;9.90;;;-3.10;48.70;;;;;;5030879;28;20253;-68
2022/03/05 04:51:38;;;;;;;13.73;7.50;;;-3.10;48.90;;;;;;5030924;28;20191;-68
2022/03/05 04:54:07;;;;;;;11.88;7.03;;;-3.10;49.50;;;;;;5030843;28;20265;-67
2022/03/05 04:56:33;;;;;;;14.52;9.85;;;-3.10;49.50;;;;;;5031020;28;20221;-69
2022/03/05 04:59:00;;;;;;;17.48;8.32;;;-3.20;49.00;;;;;;5030683;28;20241;-67
2022/03/05 05:01:27;;;;;;;15.07;7.65;;;-3.20;48.90;;;;;;5030551;28;20203;-68
2022/03/05 05:03:54;;;;;;;14.43;8.30;;;-3.30;48.90;;;;;;5030774;28;20233;-69
2022/03/05 05:06:21;;;;;;;17.38;8.10;;;-3.30;48.80;;;;;;5030755;28;20203;-68
2022/03/05 05:08:48;;;;;;;16.50;9.48;;;-3.30;48.90;;;;;;5030781;28;20203;-67
2022/03/05 05:11:17;;;;;;;16.60;10.48;;;-3.30;49.10;;;;;;5030262;28;20282;-68
2022/03/05 05:13:44;;;;;;;17.20;8.68;;;-3.40;49.50;;;;;;5030133;28;20681;-69
2022/03/05 05:16:11;;;;;;;20.90;8.45;;;-3.40;49.70;;;;;;5030633;28;20584;-67
2022/03/05 05:18:38;;;;;;;17.17;10.73;;;-3.40;49.80;;;;;;5030592;28;20245;-68
2022/03/05 05:21:05;;;;;;;14.27;8.80;;;-3.40;49.80;;;;;;5030586;28;20203;-67
2022/03/05 05:23:32;;;;;;;16.13;8.35;;;-3.40;50.00;;;;;;5030437;28;20723;-67
2022/03/05 05:25:59;;;;;;;14.30;8.27;;;-3.50;50.30;;;;;;5030305;28;20261;-67
2022/03/05 05:28:27;;;;;;;19.52;9.73;;;-3.50;50.00;;;;;;5030591;28;20238;-67
2022/03/05 05:30:54;;;;;;;14.90;10.45;;;-3.50;50.20;;;;;;5030355;28;20187;-67
2022/03/05 05:33:21;;;;;;;18.73;9.82;;;-3.50;50.50;;;;;;5030042;28;20556;-67
2022/03/05 05:35:48;;;;;;;17.23;8.07;;;-3.50;50.40;;;;;;5030168;28;20658;-67
2022/03/05 05:38:15;;;;;;;16.10;9.07;;;-3.40;50.50;;;;;;5030124;28;20701;-67
2022/03/05 05:40:42;;;;;;;17.10;9.80;;;-3.50;50.10;;;;;;5029990;28;20206;-68
2022/03/05 05:43:09;;;;;;;16.95;8.95;;;-3.60;50.10;;;;;;5030122;28;20634;-68
2022/03/05 05:45:37;;;;;;;15.75;8.52;;;-3.70;50.80;;;;;;5030244;28;20257;-67
2022/03/05 05:48:04;;;;;;;16.92;9.35;;;-3.70;51.00;;;;;;5029838;28;20195;-68
2022/03/05 05:50:31;;;;;;;17.75;8.88;;;-3.70;51.00;;;;;;5029982;28;20249;-67
2022/03/05 05:52:58;;;;;;;16.77;9.45;;;-3.70;51.20;;;;;;5030583;28;20219;-67
2022/03/05 05:55:25;;;;;;;15.40;8.43;;;-3.60;51.70;;;;;;5030427;28;20191;-67
2022/03/05 05:57:53;;;;;;;16.75;9.07;;;-3.60;51.90;;;;;;5030266;28;20249;-74
2022/03/05 06:00:20;;;;;;;15.13;8.77;;;-3.60;52.20;;;;;;5030256;28;20567;-68
2022/03/05 06:02:48;;;;;;;14.68;9.73;;;-3.60;52.40;;;;;;5030063;28;20199;-67
2022/03/05 06:05:15;;;;;;;21.80;10.57;;;-3.60;52.70;;;;;;5029758;28;20187;-67
2022/03/05 06:07:42;;;;;;;17.42;9.52;;;-3.60;52.50;;;;;;5029959;28;20191;-68
2022/03/05 06:10:10;;;;;;;17.63;10.20;;;-3.50;52.70;;;;;;5029888;28;20241;-68
2022/03/05 06:12:37;;;;;;;15.32;8.55;;;-3.40;52.80;;;;;;5029530;28;20197;-68
2022/03/05 06:15:04;;;;;;;21.08;11.02;;;-3.30;52.30;;;;;;5029665;28;20251;-68
2022/03/05 06:17:32;;;;;;;16.58;10.10;;;-3.30;51.90;;;;;;5029471;28;20720;-66
2022/03/05 06:20:00;;;;;;;18.83;11.95;;;-3.30;51.80;;;;;;5029832;28;20191;-67
2022/03/05 06:22:27;;;;;;;16.10;9.10;;;-3.20;52.20;;;;;;5029118;28;20199;-67
2022/03/05 06:24:54;;;;;;;22.33;10.52;;;-3.10;52.40;;;;;;5029464;28;20257;-67
2022/03/05 06:27:21;;;;;;;16.02;10.05;;;-3.00;52.50;;;;;;5029296;28;20191;-68
2022/03/05 06:29:48;;;;;;;18.25;11.23;;;-2.90;52.50;;;;;;5029117;28;20198;-67
2022/03/05 06:32:15;;;;;;;20.30;12.45;;;-2.90;52.80;;;;;;5029210;28;20230;-67
2022/03/05 06:34:42;;;;;;;22.88;13.23;;;-2.70;53.40;;;;;;5028932;28;20290;-67
2022/03/05 06:37:10;;;;;;;23.92;13.30;;;-2.60;53.10;;;;;;5029120;28;20268;-67
2022/03/05 06:39:37;;;;;;;24.05;14.05;;;-2.40;53.20;;;;;;5028600;28;20250;-68
2022/03/05 06:42:04;;;;;;;32.85;18.90;;;-2.30;53.00;;;;;;5029077;28;20222;-67
2022/03/05 06:44:32;;;;;;;33.42;17.20;;;-2.00;52.70;;;;;;5028759;28;20199;-67
2022/03/05 06:46:59;;;;;;;28.45;16.20;;;-1.80;52.50;;;;;;5028223;28;20205;-68
2022/03/05 06:49:26;;;;;;;25.48;15.23;;;-1.50;52.20;;;;;;5029040;28;20191;-67
2022/03/05 06:51:53;;;;;;;18.02;11.15;;;-1.10;51.70;;;;;;5030325;28;20194;-67
2022/03/05 06:54:21;;;;;;;15.00;9.40;;;-0.70;50.50;;;;;;5030116;28;20258;-67
2022/03/05 06:56:48;;;;;;;17.20;10.13;;;-0.40;49.10;;;;;;5030031;28;20239;-67
2022/03/05 06:59:15;;;;;;;24.00;10.85;;;-0.10;48.60;;;;;;5029900;28;20253;-67
2022/03/05 07:01:42;;;;;;;16.38;10.15;;;0.20;48.10;;;;;;5029744;28;20203;-67
2022/03/05 07:04:09;;;;;;;24.00;12.73;;;0.70;47.30;;;;;;5030114;28;20233;-67
2022/03/05 07:06:37;;;;;;;22.63;11.80;;;1.30;46.30;;;;;;5030171;28;20234;-68
2022/03/05 07:09:04;;;;;;;19.23;12.55;;;1.60;44.80;;;;;;5030067;28;20555;-67
2022/03/05 07:11:33;;;;;;;19.05;12.57;;;2.10;44.30;;;;;;5030038;28;20253;-67
2022/03/05 07:14:00;;;;;;;29.23;13.77;;;2.70;43.80;;;;;;5029901;28;20235;-67
2022/03/05 07:16:27;;;;;;;24.45;14.48;;;3.40;42.30;;;;;;5030087;28;21021;-67
2022/03/05 07:18:54;;;;;;;28.20;14.95;;;4.20;41.20;;;;;;5028972;28;20191;-67
2022/03/05 07:21:30;;;;;;;25.05;14.40;;;5.20;40.00;;;;;;5028723;28;20646;-67
2022/03/05 07:23:59;;;;;;;22.48;14.15;;;6.20;37.00;;;;;;5028380;28;20278;-67
2022/03/05 07:26:27;;;;;;;21.77;14.43;;;;;;;;;;5028950;28;20191;-68
2022/03/05 07:28:55;;;;;;;33.45;21.58;;;;;;;;;;5028888;28;20245;-67
2022/03/05 07:31:22;;;;;;;25.60;18.33;;;;;;;;;;5028843;28;20256;-68
2022/03/05 07:33:49;;;;;;;25.10;15.82;;;7.40;35.00;;;;;;5029556;28;20314;-69
2022/03/05 07:36:17;;;;;;;18.10;13.27;;;12.20;26.10;;;;;;5033159;28;20276;-68
2022/03/05 07:38:44;;;;;;;21.40;13.52;;;13.10;25.00;;;;;;5033146;28;20645;-68
2022/03/05 07:41:11;;;;;;;22.10;13.98;;;14.00;24.20;;;;;;5032836;28;20536;-68
2022/03/05 07:43:38;;;;;;;31.65;23.42;;;14.80;23.20;;;;;;5032805;28;20614;-68
2022/03/05 07:46:07;;;;;;;22.92;15.77;;;15.70;22.00;;;;;;5032837;28;20253;-68
2022/03/05 07:48:34;;;;;;;17.30;13.13;;;16.50;21.60;;;;;;5033392;28;20217;-72
2022/03/05 07:51:02;;;;;;;18.08;14.27;;;17.30;20.90;;;;;;5032429;28;20230;-69
2022/03/05 07:53:29;;;;;;;21.25;18.15;;;18.10;19.80;;;;;;5032864;28;20215;-69
2022/03/05 07:55:56;;;;;;;27.85;19.55;;;19.00;19.50;;;;;;5033124;28;20215;-68
2022/03/05 07:58:23;;;;;;;20.67;15.32;;;19.80;18.40;;;;;;5032933;28;20237;-70
2022/03/05 08:00:50;;;;;;;21.60;14.10;;;20.50;17.50;;;;;;5032866;28;20719;-68
2022/03/05 08:03:19;;;;;;;23.70;17.30;;;21.20;17.30;;;;;;5032822;28;20980;-68
2022/03/05 08:05:46;;;;;;;19.07;14.77;;;22.10;17.30;;;;;;5032992;28;20434;-68
2022/03/05 08:08:13;;;;;;;21.37;15.57;;;22.80;15.30;;;;;;5032267;28;20473;-69
2022/03/05 08:10:40;;;;;;;17.67;14.90;;;22.90;15.30;;;;;;5032978;28;20480;-69
2022/03/05 08:13:07;;;;;;;19.40;15.20;;;23.30;15.00;;;;;;5032900;28;20481;-70
2022/03/05 08:15:34;;;;;;;20.03;16.87;;;23.70;14.90;;;;;;5033120;28;20629;-69
2022/03/05 08:18:02;;;;;;;16.57;13.73;;;24.50;14.30;;;;;;5032925;28;20449;-70
2022/03/05 08:20:32;;;;;;;19.80;16.90;;;25.20;13.80;;;;;;5033197;28;20465;-69
2022/03/05 08:22:59;;;;;;;20.57;16.10;;;26.10;14.20;;;;;;5033563;28;20481;-69
2022/03/05 08:25:28;;;;;;;23.03;18.33;;;27.00;13.10;;;;;;5033106;28;20444;-71
2022/03/05 08:27:55;;;;;;;19.77;16.50;;;27.80;12.60;;;;;;5029811;28;20496;-69
2022/03/05 08:30:22;;;;;;;23.30;19.83;;;28.40;11.60;;;;;;5033567;28;20461;-69
2022/03/05 08:32:49;;;;;;;18.60;16.13;;;28.90;11.70;;;;;;5033578;28;20442;-69
2022/03/05 08:35:18;;;;;;;20.03;17.20;;;29.40;10.10;;;;;;5033255;28;20434;-72
2022/03/05 08:37:46;;;;;;;17.83;15.20;;;29.70;10.70;;;;;;5029739;28;20453;-69
2022/03/05 08:40:15;;;;;;;23.87;21.27;;;30.10;10.80;;;;;;5033695;28;20539;-69
2022/03/05 08:42:42;;;;;;;25.57;22.80;;;30.70;10.80;;;;;;5032524;28;20450;-68
2022/03/05 08:45:11;;;;;;;19.30;17.07;;;31.50;10.20;;;;;;5031475;28;20485;-66
2022/03/05 08:47:38;;;;;;;17.03;15.23;;;32.00;9.10;;;;;;5031370;28;20460;-67
2022/03/05 08:50:07;;;;;;;16.97;15.27;;;32.30;9.10;;;;;;5031928;28;20986;-67
2022/03/05 08:52:36;;;;;;;17.33;15.50;;;32.50;8.60;;;;;;5031833;28;20447;-67
2022/03/05 08:55:05;;;;;;;18.37;16.57;;;32.60;8.60;;;;;;5032056;28;20433;-68
2022/03/05 08:57:32;;;;;;;29.50;26.47;;;32.90;8.90;;;;;;5031870;28;20528;-68
2022/03/05 09:00:06;;;;;;;21.03;18.87;;;33.50;8.50;;;;;;5032140;28;20438;-70
2022/03/05 09:02:33;;;;;;;18.90;17.00;;;34.10;8.20;;;;;;5030064;28;20441;-70
2022/03/05 09:05:00;;;;;;;20.83;18.30;;;34.50;8.10;;;;;;5033280;28;20992;-69
2022/03/05 09:07:27;;;;;;;22.03;19.93;;;35.00;7.50;;;;;;5033719;28;20434;-69
2022/03/05 09:09:54;;;;;;;17.70;15.87;;;35.30;7.80;;;;;;5033447;28;20540;-69
2022/03/05 09:12:23;;;;;;;17.90;16.20;;;35.90;7.50;;;;;;5033364;28;20492;-69
2022/03/05 09:14:50;;;;;;;20.27;18.20;;;36.10;6.80;;;;;;5032419;28;20530;-67
2022/03/05 09:17:32;;;;;;;18.20;16.40;;;36.40;6.60;;;;;;5032152;28;20476;-69
2022/03/05 09:19:59;;;;;;;22.07;19.83;;;36.60;6.70;;;;;;5030677;28;20510;-67
2022/03/05 09:22:26;;;;;;;16.00;14.50;;;37.00;6.60;;;;;;5032156;28;20445;-66
2022/03/05 09:24:53;;;;;;;13.77;12.37;;;37.30;5.90;;;;;;5031860;28;20441;-69
2022/03/05 09:27:19;;;;;;;15.90;13.07;;;37.30;5.00;;;;;;5031692;28;20472;-67
2022/03/05 09:29:48;;;;;;;14.23;12.40;;;37.20;4.50;;;;;;5032462;28;20474;-67
2022/03/05 09:32:15;;;;;;;13.13;11.90;;;37.00;4.70;;;;;;5032729;28;20477;-67
2022/03/05 09:34:42;;;;;;;12.77;11.47;;;36.80;4.40;;;;;;5032303;28;20559;-68
2022/03/05 09:37:09;;;;;;;12.63;11.40;;;36.90;5.00;;;;;;5028460;28;20497;-70
2022/03/05 09:39:37;;;;;;;13.47;12.10;;;36.80;4.30;;;;;;5032756;28;20496;-67
2022/03/05 09:42:05;;;;;;;13.00;11.80;;;37.10;5.10;;;;;;5032180;28;20484;-67
2022/03/05 09:44:32;;;;;;;13.37;12.07;;;37.30;4.10;;;;;;5031621;28;20454;-68
2022/03/05 09:47:02;;;;;;;15.17;12.73;;;37.10;4.30;;;;;;5032086;28;20913;-67
2022/03/05 09:49:29;;;;;;;12.90;11.57;;;37.50;4.70;;;;;;5032273;28;20793;-67
2022/03/05 09:51:59;;;;;;;14.80;12.67;;;37.80;4.20;;;;;;5032042;28;20473;-70
2022/03/05 09:54:28;;;;;;;13.80;12.40;;;37.50;3.90;;;;;;5027726;28;20535;-67
2022/03/05 09:56:55;;;;;;;14.60;13.10;;;37.30;4.10;;;;;;5031652;28;20531;-66
2022/03/05 09:59:22;;;;;;;15.33;13.73;;;37.70;4.40;;;;;;5032419;28;20449;-66
2022/03/05 10:01:50;;;;;;;13.63;12.20;;;38.10;3.90;;;;;;5031963;28;20437;-66
2022/03/05 10:04:23;;;;;;;14.30;12.93;;;38.20;3.70;;;;;;5032483;28;20497;-66
2022/03/05 10:07:09;;;;;;;13.30;11.97;;;38.20;3.50;;;;;;5032262;28;20441;-67
2022/03/05 10:09:36;;;;;;;14.30;12.80;;;38.10;3.40;;;;;;5032333;28;20450;-67
2022/03/05 10:12:25;;;;;;;15.67;14.07;;;38.30;4.50;;;;;;5032373;28;20438;-67
2022/03/05 10:15:08;;;;;;;13.53;12.23;;;39.20;3.80;;;;;;5030497;28;20493;-67
2022/03/05 10:17:56;;;;;;;14.27;12.83;;;39.70;3.30;;;;;;5029355;28;20442;-67
2022/03/05 10:20:26;;;;;;;13.67;12.37;;;39.50;3.00;;;;;;5028265;28;20970;-67
2022/03/05 10:23:02;;;;;;;13.97;12.57;;;39.40;4.00;;;;;;5031733;28;20985;-66
2022/03/05 10:25:35;;;;;;;13.57;12.17;;;39.30;3.50;;;;;;5028002;28;20441;-66
2022/03/05 10:28:07;;;;;;;11.40;10.27;;;39.30;2.90;;;;;;5032418;28;20482;-67
2022/03/05 10:30:45;;;;;;;13.47;11.20;;;39.50;2.90;;;;;;5031517;28;20503;-67
2022/03/05 10:33:26;;;;;;;12.57;11.27;;;39.60;2.60;;;;;;5032242;28;20446;-67
2022/03/05 10:35:55;;;;;;;12.07;10.90;;;39.40;2.80;;;;;;5027865;28;20531;-66
2022/03/05 10:38:25;;;;;;;12.40;11.10;;;39.40;2.50;;;;;;5031702;28;20488;-67
2022/03/05 10:40:56;;;;;;;11.77;10.67;;;39.10;2.60;;;;;;5031810;28;20528;-68
2022/03/05 10:43:23;;;;;;;11.10;9.77;;;39.10;2.90;;;;;;5027690;28;20478;-67
2022/03/05 10:45:55;;;;;;;11.93;10.10;;;39.70;2.90;;;;;;5031724;28;20454;-67
2022/03/05 10:48:24;;;;;;;11.83;10.67;;;40.60;2.90;;;;;;5031305;28;20498;-67
2022/03/05 10:50:58;;;;;;;10.90;9.77;;;41.60;2.60;;;;;;5026927;28;20433;-67
2022/03/05 10:53:42;;;;;;;11.17;10.07;;;41.70;1.90;;;;;;5031570;28;20986;-68
2022/03/05 10:56:27;;;;;;;11.33;10.33;;;41.80;2.20;;;;;;5031137;28;20539;-67
2022/03/05 10:59:09;;;;;;;10.47;9.47;;;42.00;1.90;;;;;;5027461;28;20451;-68
2022/03/05 11:01:38;;;;;;;10.03;9.03;;;42.00;1.30;;;;;;5031251;28;20496;-68
2022/03/05 11:04:07;;;;;;;10.20;8.33;;;42.00;1.60;;;;;;5027348;28;20508;-67
2022/03/05 11:06:39;;;;;;;10.00;9.00;;;42.00;1.40;;;;;;5031385;28;20486;-68
2022/03/05 11:09:06;;;;;;;10.17;9.27;;;42.00;1.20;;;;;;5030727;28;20438;-71
2022/03/05 11:11:37;;;;;;;9.50;8.60;;;41.50;1.20;;;;;;5027213;28;20437;-68
2022/03/05 11:14:05;;;;;;;9.67;8.73;;;41.00;1.50;;;;;;5030657;28;20512;-68
2022/03/05 11:16:32;;;;;;;11.00;9.90;;;40.80;1.50;;;;;;5029794;28;20485;-67
2022/03/05 11:19:00;;;;;;;10.53;9.50;;;40.70;2.00;;;;;;5030913;28;20488;-69
2022/03/05 11:21:28;;;;;;;10.70;9.70;;;40.90;1.80;;;;;;5031179;28;20442;-68
2022/03/05 11:23:57;;;;;;;10.10;9.07;;;41.00;1.50;;;;;;5031241;28;20469;-68
2022/03/05 11:26:25;;;;;;;10.10;9.17;;;41.20;1.80;;;;;;5030777;28;20438;-69
2022/03/05 11:28:52;;;;;;;10.90;9.63;;;40.80;1.40;;;;;;5030852;28;20465;-70
2022/03/05 11:31:21;;;;;;;11.33;10.13;;;40.50;1.70;;;;;;5030942;28;20453;-71
2022/03/05 11:33:49;;;;;;;11.47;10.37;;;40.20;1.60;;;;;;5031194;28;20437;-71
2022/03/05 11:36:28;;;;;;;9.97;9.00;;;40.10;2.60;;;;;;5030391;28;20486;-74
2022/03/05 11:39:17;;;;;;;10.30;9.30;;;40.20;2.20;;;;;;5031060;28;20437;-74
2022/03/05 11:42:01;;;;;;;10.10;8.77;;;40.20;1.90;;;;;;5031178;28;20854;-75
2022/03/05 11:44:31;;;;;;;10.67;9.57;;;40.60;2.40;;;;;;5031194;28;20791;-75
2022/03/05 11:47:38;;;;;;;10.20;9.20;;;41.30;2.00;;;;;;5031061;28;20508;-75
2022/03/05 11:50:15;;;;;;;10.47;9.33;;;41.70;1.90;;;;;;5030659;28;20484;-75
2022/03/05 11:53:05;;;;;;;10.97;9.80;;;42.10;1.60;;;;;;5030879;28;20438;-75
2022/03/05 11:55:40;;;;;;;11.90;9.13;;;41.90;1.40;;;;;;5031063;28;20486;-75
2022/03/05 11:58:42;;;;;;;10.77;9.80;;;41.70;1.50;;;;;;5023587;28;20440;-78
2022/03/05 12:01:35;;;;;;;10.50;9.50;;;41.90;1.90;;;;;;5030458;28;20784;-74
2022/03/05 12:04:18;;;;;;;10.40;9.40;;;42.20;1.80;;;;;;5022466;28;20963;-75
2022/03/05 12:06:46;;;;;;;10.57;9.20;;;42.20;1.30;;;;;;5029039;28;20445;-75
2022/03/05 12:09:42;;;;;;;9.80;8.90;;;41.30;1.40;;;;;;5030015;28;20446;-75
2022/03/05 12:12:15;;;;;;;10.27;9.30;;;40.80;1.70;;;;;;5030149;28;20529;-75
2022/03/05 12:15:15;;;;;;;8.90;8.00;;;40.40;1.50;;;;;;5029818;28;20484;-76
2022/03/05 12:17:46;;;;;;;10.90;9.90;;;39.90;1.90;;;;;;4968612;28;20954;-77
2022/03/05 12:20:15;;;;;;;10.93;9.83;;;40.00;1.70;;;;;;4966381;28;20476;-76
2022/03/05 12:22:58;;;;;;;8.83;8.03;;;40.40;1.90;;;;;;5000036;28;20449;-75
2022/03/05 12:25:26;;;;;;;10.20;9.27;;;40.70;1.70;;;;;;5033220;28;21567;-75
2022/03/05 12:27:55;;;;;;;11.33;8.80;;;41.00;1.60;;;;;;5032540;28;20963;-73
2022/03/05 12:30:24;;;;;;;10.30;9.40;;;41.10;1.50;;;;;;5032089;28;20441;-73
2022/03/05 12:32:53;;;;;;;9.90;8.90;;;41.00;1.40;;;;;;5033139;28;21296;-73
2022/03/05 12:35:21;;;;;;;13.63;9.30;;;40.90;1.40;;;;;;5032394;28;20517;-73
2022/03/05 12:37:50;;;;;;;9.90;8.90;;;40.50;1.30;;;;;;5033401;28;20459;-74
2022/03/05 12:40:17;;;;;;;8.90;8.00;;;40.10;1.80;;;;;;5028818;28;20863;-72
2022/03/05 12:42:47;;;;;;;9.73;8.80;;;40.20;1.50;;;;;;5033325;28;21240;-68
2022/03/05 12:45:21;;;;;;;9.53;8.63;;;40.10;1.40;;;;;;5033159;28;20438;-70
2022/03/05 12:47:48;;;;;;;9.03;8.23;;;39.80;1.20;;;;;;5030081;28;20451;-70
2022/03/05 12:50:30;;;;;;;8.70;7.80;;;39.50;1.60;;;;;;5032751;28;20499;-67